createdAt,value
2017-07-14T00:01:39.380Z,0
2017-07-14T00:05:56.440Z,0
2017-07-14T00:08:20.492Z,0
2017-07-14T00:10:44.501Z,0
2017-07-14T00:13:08.466Z,0
2017-07-14T00:15:32.584Z,0
2017-07-14T00:17:56.658Z,0
2017-07-14T00:20:12.341Z,0
2017-07-14T00:22:36.430Z,0
2017-07-14T00:24:53.141Z,0
2017-07-14T00:27:18.236Z,0
2017-07-14T00:29:42.333Z,0
2017-07-14T00:31:57.957Z,0
2017-07-14T00:34:22.084Z,0
2017-07-14T00:36:46.162Z,0
2017-07-14T00:39:10.246Z,0
2017-07-14T00:41:17.455Z,0
2017-07-14T00:43:41.510Z,0
2017-07-14T00:45:57.099Z,0
2017-07-14T00:48:12.690Z,0
2017-07-14T00:50:28.327Z,0
2017-07-14T00:52:53.373Z,0
2017-07-14T00:55:17.459Z,0
2017-07-14T00:57:41.540Z,0
2017-07-14T01:00:06.647Z,0
2017-07-14T01:02:30.724Z,0
2017-07-14T01:04:54.807Z,0
2017-07-14T01:07:18.887Z,0
2017-07-14T01:11:44.471Z,0
2017-07-14T01:16:10.404Z,0
2017-07-14T01:18:26.036Z,0
2017-07-14T01:20:50.090Z,0
2017-07-14T01:23:14.134Z,0
2017-07-14T01:25:38.172Z,0
2017-07-14T01:28:02.204Z,0
2017-07-14T01:30:09.373Z,0
2017-07-14T01:32:33.363Z,0
2017-07-14T01:34:57.398Z,0
2017-07-14T01:37:21.494Z,0
2017-07-14T01:39:45.581Z,0
2017-07-14T01:42:09.546Z,0
2017-07-14T01:44:35.579Z,0
2017-07-14T01:46:59.671Z,0
2017-07-14T01:49:24.774Z,0
2017-07-14T01:51:48.726Z,0
2017-07-14T01:54:04.339Z,0
2017-07-14T01:56:28.315Z,0
2017-07-14T01:58:52.394Z,0
2017-07-14T02:01:09.979Z,0
2017-07-14T02:03:26.597Z,0
2017-07-14T02:05:50.702Z,0
2017-07-14T02:10:08.664Z,0
2017-07-14T02:12:32.633Z,0
2017-07-14T02:14:56.617Z,0
2017-07-14T02:17:12.101Z,0
2017-07-14T02:19:36.056Z,0
2017-07-14T02:21:51.657Z,0
2017-07-14T02:24:15.651Z,0
2017-07-14T02:26:23.773Z,0
2017-07-14T02:30:50.218Z,0
2017-07-14T02:33:14.204Z,0
2017-07-14T02:35:38.172Z,0
2017-07-14T02:37:53.735Z,0
2017-07-14T02:40:17.826Z,0
2017-07-14T02:44:35.231Z,0
2017-07-14T02:46:50.805Z,0
2017-07-14T02:49:14.786Z,0
2017-07-14T02:51:38.802Z,0
2017-07-14T02:55:48.309Z,0
2017-07-14T03:00:22.150Z,0
2017-07-14T03:02:46.156Z,0
2017-07-14T03:07:20.049Z,0
2017-07-14T03:09:43.994Z,0
2017-07-14T03:11:59.546Z,0
2017-07-14T03:14:23.550Z,0
2017-07-14T03:16:47.627Z,0
2017-07-14T03:19:11.719Z,0
2017-07-14T03:21:35.786Z,0
2017-07-14T03:23:51.345Z,0
2017-07-14T03:26:15.353Z,0
2017-07-14T03:28:39.433Z,0
2017-07-14T03:31:03.519Z,0
2017-07-14T03:33:19.069Z,0
2017-07-14T03:35:43.088Z,0
2017-07-14T03:38:07.173Z,0
2017-07-14T03:40:32.259Z,0
2017-07-14T03:42:56.347Z,0
2017-07-14T03:44:55.071Z,0
2017-07-14T03:47:19.107Z,0
2017-07-14T03:49:43.206Z,0
2017-07-14T03:51:58.838Z,0
2017-07-14T03:54:14.440Z,0
2017-07-14T03:56:38.565Z,0
2017-07-14T03:59:03.566Z,0
2017-07-14T04:01:19.189Z,0
2017-07-14T04:03:43.177Z,0
2017-07-14T04:06:07.196Z,5
2017-07-14T04:08:32.228Z,5
2017-07-14T04:10:56.292Z,5
2017-07-14T04:13:20.378Z,5
2017-07-14T04:15:44.378Z,5
2017-07-14T04:18:08.436Z,5
2017-07-14T04:20:32.516Z,5
2017-07-14T04:22:56.496Z,5
2017-07-14T04:25:20.590Z,5
2017-07-14T04:27:45.679Z,5
2017-07-14T04:30:09.766Z,5
2017-07-14T04:32:25.360Z,5
2017-07-14T04:34:49.428Z,5
2017-07-14T04:37:13.517Z,5
2017-07-14T04:39:37.594Z,10
2017-07-14T04:42:01.583Z,5
2017-07-14T04:44:25.646Z,5
2017-07-14T04:46:49.727Z,5
2017-07-14T04:49:13.722Z,5
2017-07-14T04:51:38.831Z,5
2017-07-14T04:54:02.895Z,5
2017-07-14T04:56:26.973Z,5
2017-07-14T04:58:51.063Z,10
2017-07-14T05:01:06.715Z,10
2017-07-14T05:03:13.849Z,10
2017-07-14T05:05:37.804Z,15
2017-07-14T05:07:53.374Z,20
2017-07-14T05:10:17.357Z,25
2017-07-14T05:12:33.013Z,30
2017-07-14T05:14:58.054Z,35
2017-07-14T05:17:29.029Z,35
2017-07-14T05:19:53.098Z,40
2017-07-14T05:22:19.244Z,50
2017-07-14T05:24:44.336Z,55
2017-07-14T05:27:08.441Z,65
2017-07-14T05:29:24.181Z,100
2017-07-14T05:31:48.436Z,100
2017-07-14T05:34:12.749Z,155
2017-07-14T05:36:37.176Z,175
2017-07-14T05:39:01.624Z,185
2017-07-14T05:41:26.219Z,210
2017-07-14T05:43:50.948Z,250
2017-07-14T05:46:15.816Z,280
2017-07-14T05:48:40.836Z,245
2017-07-14T05:50:58.508Z,190
2017-07-14T05:53:15.199Z,235
2017-07-14T05:55:40.349Z,725
2017-07-14T05:57:57.021Z,1240
2017-07-14T06:00:22.422Z,1355
2017-07-14T06:02:48.005Z,935
2017-07-14T06:07:16.096Z,1170
2017-07-14T06:09:42.080Z,265
2017-07-14T06:12:08.159Z,1380
2017-07-14T06:14:34.346Z,1390
2017-07-14T06:17:16.476Z,270
2017-07-14T06:21:19.061Z,220
2017-07-14T06:25:55.625Z,125
2017-07-14T06:28:12.871Z,110
2017-07-14T06:30:38.426Z,120
2017-07-14T06:33:03.836Z,155
2017-07-14T06:35:29.151Z,125
2017-07-14T06:37:54.325Z,90
2017-07-14T06:40:19.384Z,70
2017-07-14T06:42:35.848Z,60
2017-07-14T06:45:00.820Z,55
2017-07-14T06:47:19.259Z,40
2017-07-14T06:49:35.553Z,35
2017-07-14T06:52:00.197Z,30
2017-07-14T06:54:24.881Z,25
2017-07-14T06:56:49.459Z,25
2017-07-14T06:59:13.982Z,25
2017-07-14T07:01:32.023Z,25
2017-07-14T07:03:48.027Z,25
2017-07-14T07:06:12.441Z,25
2017-07-14T07:08:36.922Z,30
2017-07-14T07:11:02.350Z,30
2017-07-14T07:13:26.703Z,30
2017-07-14T07:15:51.124Z,35
2017-07-14T07:18:06.980Z,40
2017-07-14T07:20:31.359Z,40
2017-07-14T07:22:55.599Z,45
2017-07-14T07:25:19.862Z,45
2017-07-14T07:27:35.674Z,50
2017-07-14T07:30:00.012Z,55
2017-07-14T07:32:24.312Z,55
2017-07-14T07:34:48.580Z,50
2017-07-14T07:37:12.874Z,40
2017-07-14T07:41:47.157Z,60
2017-07-14T07:44:11.474Z,85
2017-07-14T07:46:35.724Z,100
2017-07-14T07:49:00.038Z,105
2017-07-14T07:51:24.471Z,105
2017-07-14T07:53:48.871Z,125
2017-07-14T07:56:13.275Z,215
2017-07-14T07:58:29.217Z,180
2017-07-14T08:00:53.678Z,175
2017-07-14T08:05:29.773Z,215
2017-07-14T08:07:54.257Z,215
2017-07-14T08:10:18.831Z,230
2017-07-14T08:12:43.555Z,205
2017-07-14T08:15:08.205Z,265
2017-07-14T08:17:32.863Z,260
2017-07-14T08:19:58.640Z,490
2017-07-14T08:22:30.231Z,405
2017-07-14T08:26:58.274Z,285
2017-07-14T08:29:23.298Z,250
2017-07-14T08:31:39.799Z,270
2017-07-14T08:34:04.774Z,225
2017-07-14T08:36:29.748Z,245
2017-07-14T08:38:54.761Z,305
2017-07-14T08:41:19.769Z,250
2017-07-14T08:43:44.771Z,480
2017-07-14T08:46:09.806Z,405
2017-07-14T08:48:26.426Z,495
2017-07-14T08:50:43.131Z,485
2017-07-14T08:56:55.209Z,450
2017-07-14T08:59:12.071Z,325
2017-07-14T09:01:37.442Z,305
2017-07-14T09:03:45.802Z,415
2017-07-14T09:06:11.159Z,485
2017-07-14T09:08:36.610Z,405
2017-07-14T09:11:03.084Z,250
2017-07-14T09:13:28.584Z,210
2017-07-14T09:15:54.073Z,245
2017-07-14T09:18:19.473Z,400
2017-07-14T09:20:44.765Z,270
2017-07-14T09:23:10.044Z,235
2017-07-14T09:25:26.795Z,200
2017-07-14T09:27:52.195Z,220
2017-07-14T09:30:08.858Z,390
2017-07-14T09:32:34.001Z,360
2017-07-14T09:34:59.198Z,260
2017-07-14T09:37:24.569Z,270
2017-07-14T09:39:49.731Z,225
2017-07-14T09:43:52.273Z,335
2017-07-14T09:46:17.430Z,325
2017-07-14T09:48:42.589Z,315
2017-07-14T09:51:07.826Z,305
2017-07-14T09:53:42.105Z,285
2017-07-14T09:55:59.033Z,235
2017-07-14T09:58:24.344Z,290
2017-07-14T10:00:41.178Z,190
2017-07-14T10:03:06.567Z,200
2017-07-14T10:07:33.658Z,270
2017-07-14T10:09:58.978Z,260
2017-07-14T10:12:15.775Z,205
2017-07-14T10:14:33.200Z,270
2017-07-14T10:16:59.491Z,265
2017-07-14T10:19:24.788Z,260
2017-07-14T10:21:41.546Z,205
2017-07-14T10:24:06.792Z,235
2017-07-14T10:26:23.473Z,230
2017-07-14T10:30:59.034Z,165
2017-07-14T10:33:24.181Z,155
2017-07-14T10:35:49.338Z,215
2017-07-14T10:38:14.420Z,220
2017-07-14T10:40:39.542Z,220
2017-07-14T10:43:04.619Z,160
2017-07-14T10:45:21.232Z,220
2017-07-14T10:47:46.384Z,215
2017-07-14T10:50:11.493Z,215
2017-07-14T10:52:36.589Z,190
2017-07-14T10:55:01.685Z,140
2017-07-14T10:57:43.821Z,140
2017-07-14T11:00:08.894Z,130
2017-07-14T11:02:33.889Z,125
2017-07-14T11:04:58.896Z,185
2017-07-14T11:07:25.998Z,170
2017-07-14T11:09:42.492Z,195
2017-07-14T11:12:07.439Z,195
2017-07-14T11:14:34.394Z,190
2017-07-14T11:16:52.963Z,145
2017-07-14T11:19:17.965Z,135
2017-07-14T11:21:42.970Z,125
2017-07-14T11:24:07.906Z,125
2017-07-14T11:26:32.891Z,130
2017-07-14T11:28:49.347Z,130
2017-07-14T11:31:14.279Z,120
2017-07-14T11:33:46.974Z,110
2017-07-14T11:38:22.045Z,105
2017-07-14T11:40:46.920Z,115
2017-07-14T11:43:11.712Z,115
2017-07-14T11:45:36.510Z,115
2017-07-14T11:48:01.265Z,115
2017-07-14T11:50:26.003Z,120
2017-07-14T11:54:43.902Z,115
2017-07-14T11:57:08.692Z,100
2017-07-14T11:59:33.431Z,85
2017-07-14T12:01:58.206Z,80
2017-07-14T12:04:23.010Z,75
2017-07-14T12:06:47.762Z,65
2017-07-14T12:09:12.524Z,55
2017-07-14T12:11:37.224Z,60
2017-07-14T12:14:01.958Z,55
2017-07-14T12:16:26.643Z,65
2017-07-14T12:18:52.370Z,80
2017-07-14T12:21:17.011Z,110
2017-07-14T12:23:41.629Z,130
2017-07-14T12:26:23.358Z,150
2017-07-14T12:28:48.004Z,135
2017-07-14T12:31:12.731Z,95
2017-07-14T12:35:15.776Z,85
2017-07-14T12:37:40.538Z,65
2017-07-14T12:40:05.253Z,70
2017-07-14T12:42:30.756Z,75
2017-07-14T12:44:55.505Z,70
2017-07-14T12:47:20.073Z,70
2017-07-14T12:49:44.646Z,85
2017-07-14T12:52:09.287Z,120
2017-07-14T12:54:33.904Z,130
2017-07-14T12:56:58.594Z,125
2017-07-14T13:00:50.596Z,130
2017-07-14T13:03:15.381Z,135
2017-07-14T13:05:40.157Z,115
2017-07-14T13:08:04.936Z,95
2017-07-14T13:12:39.851Z,100
2017-07-14T13:15:04.603Z,95
2017-07-14T13:17:29.460Z,85
2017-07-14T13:19:54.192Z,80
2017-07-14T13:22:18.989Z,85
2017-07-14T13:24:43.724Z,80
2017-07-14T13:27:08.424Z,75
2017-07-14T13:29:33.093Z,75
2017-07-14T13:35:43.670Z,60
2017-07-14T13:38:08.362Z,55
2017-07-14T13:40:33.035Z,60
2017-07-14T13:42:57.679Z,60
2017-07-14T13:45:22.357Z,70
2017-07-14T13:47:47.007Z,80
2017-07-14T13:50:20.516Z,100
2017-07-14T13:52:45.183Z,105
2017-07-14T13:55:09.890Z,110
2017-07-14T13:57:26.174Z,105
2017-07-14T13:59:50.876Z,105
2017-07-14T14:02:15.607Z,105
2017-07-14T14:04:40.409Z,110
2017-07-14T14:06:56.666Z,110
2017-07-14T14:09:21.471Z,80
2017-07-14T14:11:46.304Z,80
2017-07-14T14:14:11.226Z,75
2017-07-14T14:16:36.134Z,65
2017-07-14T14:19:00.922Z,60
2017-07-14T14:21:25.691Z,90
2017-07-14T14:23:50.472Z,95
2017-07-14T14:26:15.260Z,100
2017-07-14T14:28:40.098Z,105
2017-07-14T14:31:04.856Z,110
2017-07-14T14:33:29.714Z,105
2017-07-14T14:39:57.700Z,95
2017-07-14T14:44:24.763Z,90
2017-07-14T14:46:49.664Z,95
2017-07-14T14:49:14.499Z,105
2017-07-14T14:51:39.331Z,110
2017-07-14T14:54:04.146Z,110
2017-07-14T14:56:28.933Z,85
2017-07-14T14:58:53.697Z,95
2017-07-14T15:01:18.514Z,90
2017-07-14T15:03:34.854Z,80
2017-07-14T15:05:59.599Z,90
2017-07-14T15:10:34.485Z,80
2017-07-14T15:12:59.292Z,95
2017-07-14T15:15:24.124Z,90
2017-07-14T15:17:48.976Z,90
2017-07-14T15:20:15.164Z,85
2017-07-14T15:22:48.004Z,80
2017-07-14T15:25:13.462Z,80
2017-07-14T15:27:50.948Z,75
2017-07-14T15:30:18.598Z,80
2017-07-14T15:36:38.515Z,80
2017-07-14T15:39:03.486Z,80
2017-07-14T15:46:38.348Z,75
2017-07-14T15:49:03.321Z,45
2017-07-14T15:51:28.072Z,65
2017-07-14T15:56:02.921Z,70
2017-07-14T15:58:27.676Z,75
2017-07-14T16:00:52.410Z,75
2017-07-14T16:03:17.162Z,75
2017-07-14T16:07:52.190Z,70
2017-07-14T16:10:16.897Z,70
2017-07-14T16:12:24.668Z,70
2017-07-14T16:14:49.334Z,70
2017-07-14T16:17:13.995Z,70
2017-07-14T16:19:30.306Z,55
2017-07-14T16:21:54.972Z,55
2017-07-14T16:24:19.611Z,60
2017-07-14T16:26:35.814Z,65
2017-07-14T16:29:00.422Z,70
2017-07-14T16:31:25.158Z,70
2017-07-14T16:33:41.759Z,70
2017-07-14T16:36:06.449Z,65
2017-07-14T16:38:31.153Z,50
2017-07-14T16:40:55.800Z,65
2017-07-14T16:43:20.543Z,55
2017-07-14T16:45:45.207Z,65
2017-07-14T16:48:09.857Z,65
2017-07-14T16:50:34.524Z,70
2017-07-14T16:52:59.192Z,70
2017-07-14T16:55:15.367Z,65
2017-07-14T16:57:39.987Z,70
2017-07-14T17:00:04.656Z,70
2017-07-14T17:02:29.313Z,65
2017-07-14T17:04:54.003Z,65
2017-07-14T17:07:18.784Z,65
2017-07-14T17:09:43.373Z,60
2017-07-14T17:11:59.573Z,60
2017-07-14T17:14:24.234Z,60
2017-07-14T17:16:48.995Z,55
2017-07-14T17:19:13.676Z,55
2017-07-14T17:21:29.796Z,55
2017-07-14T17:23:54.457Z,55
2017-07-14T17:26:19.048Z,55
2017-07-14T17:28:43.651Z,50
2017-07-14T17:31:08.262Z,50
2017-07-14T17:33:32.857Z,50
2017-07-14T17:35:48.983Z,50
2017-07-14T17:38:13.590Z,50
2017-07-14T17:40:38.175Z,45
2017-07-14T17:43:02.739Z,45
2017-07-14T17:45:27.259Z,45
2017-07-14T17:47:51.821Z,45
2017-07-14T17:50:07.900Z,45
2017-07-14T17:52:32.449Z,45
2017-07-14T17:54:57.170Z,40
2017-07-14T17:57:21.667Z,35
2017-07-14T17:59:37.724Z,35
2017-07-14T18:02:02.263Z,30
2017-07-14T18:04:26.791Z,30
2017-07-14T18:06:51.298Z,30
2017-07-14T18:09:07.343Z,25
2017-07-14T18:11:31.884Z,25
2017-07-14T18:13:56.507Z,25
2017-07-14T18:18:22.480Z,20
2017-07-14T18:20:46.965Z,20
2017-07-14T18:23:11.436Z,20
2017-07-14T18:25:35.887Z,20
2017-07-14T18:28:00.349Z,20
2017-07-14T18:30:24.880Z,15
2017-07-14T18:32:49.372Z,15
2017-07-14T18:35:13.847Z,15
2017-07-14T18:37:29.793Z,15
2017-07-14T18:39:54.238Z,15
2017-07-14T18:42:18.660Z,15
2017-07-14T18:44:51.706Z,10
2017-07-14T18:47:16.072Z,10
2017-07-14T18:49:42.251Z,10
2017-07-14T18:52:06.626Z,5
2017-07-14T18:54:31.268Z,5
2017-07-14T18:56:47.218Z,5
2017-07-14T18:59:11.587Z,5
2017-07-14T19:01:27.493Z,5
2017-07-14T19:03:34.969Z,5
2017-07-14T19:05:59.363Z,0
2017-07-14T19:10:33.815Z,0
2017-07-14T19:12:58.208Z,0
2017-07-14T19:15:14.144Z,0
2017-07-14T19:19:39.979Z,0
2017-07-14T19:24:14.372Z,0
2017-07-14T19:26:38.692Z,0
2017-07-14T19:29:03.046Z,0
2017-07-14T19:31:27.394Z,0
2017-07-14T19:33:51.679Z,0
2017-07-14T19:36:07.564Z,0
2017-07-14T19:38:31.887Z,0
2017-07-14T19:40:56.206Z,0
2017-07-14T19:43:20.527Z,0
2017-07-14T19:45:36.409Z,0
2017-07-14T19:48:00.722Z,0
2017-07-14T19:50:16.605Z,0
2017-07-14T19:52:40.938Z,0
2017-07-14T19:55:05.305Z,0
2017-07-14T19:57:29.645Z,0
2017-07-14T19:59:53.994Z,0
2017-07-14T20:02:18.266Z,0
2017-07-14T20:06:44.097Z,0
2017-07-14T20:08:59.969Z,0
2017-07-14T20:11:24.284Z,0
2017-07-14T20:13:48.537Z,0
2017-07-14T20:16:12.836Z,0
2017-07-14T20:18:37.107Z,0
2017-07-14T20:21:01.379Z,0
2017-07-14T20:23:25.622Z,0
2017-07-14T20:25:49.921Z,0
2017-07-14T20:28:14.216Z,0
2017-07-14T20:30:38.573Z,0
2017-07-14T20:33:02.867Z,0
2017-07-14T20:35:18.735Z,0
2017-07-14T20:37:43.061Z,0
2017-07-14T20:40:07.367Z,0
2017-07-14T20:42:31.661Z,0
2017-07-14T20:44:55.997Z,0
2017-07-14T20:47:20.318Z,0
2017-07-14T20:49:44.603Z,0
2017-07-14T20:52:00.452Z,0
2017-07-14T20:54:24.677Z,0
2017-07-14T20:56:48.915Z,0
2017-07-14T20:59:13.165Z,0
2017-07-14T21:01:37.429Z,0
2017-07-14T21:04:01.783Z,0
2017-07-14T21:06:25.937Z,0
2017-07-14T21:08:50.169Z,0
2017-07-14T21:11:14.405Z,0
2017-07-14T21:13:30.172Z,0
2017-07-14T21:15:54.373Z,0
2017-07-14T21:18:18.570Z,0
2017-07-14T21:20:17.365Z,0
2017-07-14T21:24:51.509Z,0
2017-07-14T21:27:07.220Z,0
2017-07-14T21:29:31.397Z,0
2017-07-14T21:31:55.558Z,0
2017-07-14T21:34:19.728Z,0
2017-07-14T21:36:43.853Z,0
2017-07-14T21:38:59.480Z,0
2017-07-14T21:41:23.620Z,0
2017-07-14T21:43:47.716Z,0
2017-07-14T21:46:11.809Z,0
2017-07-14T21:48:27.579Z,0
2017-07-14T21:52:53.162Z,0
2017-07-14T21:57:27.275Z,0
2017-07-14T21:59:42.932Z,0
2017-07-14T22:02:07.005Z,0
2017-07-14T22:04:31.031Z,0
2017-07-14T22:09:05.011Z,0
2017-07-14T22:11:29.033Z,0
2017-07-14T22:13:53.113Z,0
2017-07-14T22:16:17.203Z,0
2017-07-14T22:18:41.283Z,0
2017-07-14T22:20:57.620Z,0
2017-07-14T22:23:21.695Z,0
2017-07-14T22:25:37.269Z,0
2017-07-14T22:28:01.421Z,0
2017-07-14T22:30:25.468Z,0
2017-07-14T22:32:49.508Z,0
2017-07-14T22:35:13.501Z,0
2017-07-14T22:39:38.950Z,0
2017-07-14T22:43:56.103Z,0
2017-07-14T22:46:11.731Z,0
2017-07-14T22:48:35.724Z,0
2017-07-14T22:50:59.784Z,0
2017-07-14T22:53:23.818Z,0
2017-07-14T22:55:47.837Z,0
2017-07-14T22:58:11.879Z,0
2017-07-14T23:00:35.946Z,0
2017-07-14T23:02:59.984Z,0
2017-07-14T23:05:07.189Z,0
2017-07-14T23:07:32.249Z,0
2017-07-14T23:09:56.281Z,0
2017-07-14T23:12:20.323Z,0
2017-07-14T23:14:44.412Z,0
2017-07-14T23:17:08.452Z,0
2017-07-14T23:19:32.585Z,0
2017-07-14T23:21:48.204Z,0
2017-07-14T23:24:12.268Z,0
2017-07-14T23:26:36.320Z,0
2017-07-14T23:29:00.422Z,0
2017-07-14T23:31:24.508Z,0
2017-07-14T23:33:48.730Z,0
2017-07-14T23:36:12.932Z,0
2017-07-14T23:38:36.923Z,0
2017-07-14T23:41:00.976Z,0
2017-07-14T23:43:24.994Z,0
2017-07-14T23:45:49.077Z,0
2017-07-14T23:48:13.148Z,0
2017-07-14T23:50:37.191Z,0
2017-07-14T23:54:30.068Z,0
2017-07-14T23:56:54.113Z,0
2017-07-14T23:59:18.164Z,0
